Princeville, Canada
Current Conditions -  °F | °C
As of 9:00 AM on Monday 20 Oct 2014 (Local Time) from CYRQ Reporting Station
Scattered Clouds Scattered Clouds  
Wind Chill: 32°   Ceiling: Unl
Heat Index: 36°   Visibility: 9mi
Dew Point: 27°   Wind: 5mph
Humidity: 70%   Direction: 230°SW
Pressure: 29.96"   Gusts: NA
Location:  46.17°N, 71.88°W
Report Text: CYRQ 201300Z AUTO 23004KT 9SM SCT180 02/M03 A2996 RMK SLP148
Loading
Personal Weather Stations






























Interactive Weather Map
Tropical Storm Tracking
New forecast layout! Learn more

10-Day Weather Forecast

Advertisements
Track Severe Weather on mobile